createdAt,value
2023-03-11T00:01:12.140Z,7.10
2023-03-11T00:03:41.114Z,7.10
2023-03-11T00:06:09.900Z,7.00
2023-03-11T00:08:38.781Z,7.10
2023-03-11T00:11:09.200Z,7.00
2023-03-11T00:13:37.962Z,7.00
2023-03-11T00:16:07.627Z,6.90
2023-03-11T00:18:36.460Z,7.00
2023-03-11T00:21:05.639Z,7.00
2023-03-11T00:23:35.605Z,7.00
2023-03-11T00:26:04.550Z,7.00
2023-03-11T00:28:34.678Z,7.10
2023-03-11T00:31:04.311Z,7.00
2023-03-11T00:33:33.054Z,7.00
2023-03-11T00:36:02.003Z,7.00
2023-03-11T00:38:30.994Z,7.00
2023-03-11T00:41:01.718Z,7.00
2023-03-11T00:43:34.768Z,7.00
2023-03-11T00:46:04.937Z,7.00
2023-03-11T00:48:33.920Z,7.00
2023-03-11T00:51:02.683Z,6.90
2023-03-11T00:53:31.410Z,7.00
2023-03-11T00:56:01.401Z,6.90
2023-03-11T00:58:30.789Z,7.00
2023-03-11T01:01:01.115Z,7.00
2023-03-11T01:03:31.791Z,6.90
2023-03-11T01:06:00.523Z,6.90
2023-03-11T01:08:29.618Z,6.90
2023-03-11T01:10:59.148Z,6.90
2023-03-11T01:13:29.178Z,6.90
2023-03-11T01:15:58.021Z,6.90
2023-03-11T01:18:28.531Z,6.90
2023-03-11T01:20:57.461Z,6.90
2023-03-11T01:23:26.222Z,6.90
2023-03-11T01:25:56.218Z,6.80
2023-03-11T01:28:27.363Z,6.90
2023-03-11T01:30:56.171Z,6.90
2023-03-11T01:33:25.307Z,7.00
2023-03-11T01:35:55.624Z,7.00
2023-03-11T01:38:24.601Z,7.10
2023-03-11T01:40:53.838Z,7.10
2023-03-11T01:43:42.119Z,7.10
2023-03-11T01:46:16.823Z,7.10
2023-03-11T01:48:48.870Z,7.10
2023-03-11T01:51:25.122Z,7.10
2023-03-11T01:53:57.065Z,7.10
2023-03-11T01:56:26.858Z,7.10
2023-03-11T01:58:56.556Z,7.10
2023-03-11T02:01:26.588Z,7.10
2023-03-11T02:03:57.796Z,7.10
2023-03-11T02:06:28.402Z,7.10
2023-03-11T02:08:57.615Z,7.20
2023-03-11T02:11:29.760Z,7.20
2023-03-11T02:14:03.855Z,7.20
2023-03-11T02:16:33.276Z,7.20
2023-03-11T02:19:13.085Z,7.20
2023-03-11T02:21:43.336Z,7.20
2023-03-11T02:24:17.155Z,7.30
2023-03-11T02:26:55.828Z,7.20
2023-03-11T02:29:27.989Z,7.20
2023-03-11T02:31:58.116Z,7.20
2023-03-11T02:34:29.618Z,7.30
2023-03-11T02:36:59.206Z,7.30
2023-03-11T02:39:32.285Z,7.30
2023-03-11T02:42:05.731Z,7.20
2023-03-11T02:44:35.575Z,7.30
2023-03-11T02:47:04.643Z,7.30
2023-03-11T02:49:34.439Z,7.30
2023-03-11T02:52:03.286Z,7.30
2023-03-11T02:54:32.507Z,7.30
2023-03-11T02:57:02.659Z,7.30
2023-03-11T02:59:31.788Z,7.30
2023-03-11T03:02:02.431Z,7.20
2023-03-11T03:04:31.817Z,7.20
2023-03-11T03:07:01.572Z,7.20
2023-03-11T03:09:30.375Z,7.10
2023-03-11T03:11:59.154Z,7.10
2023-03-11T03:14:31.221Z,7.00
2023-03-11T03:17:00.567Z,7.00
2023-03-11T03:19:29.555Z,6.90
2023-03-11T03:21:58.340Z,6.80
2023-03-11T03:24:27.195Z,6.80
2023-03-11T03:26:56.006Z,6.70
2023-03-11T03:29:24.872Z,6.70
2023-03-11T03:31:55.401Z,6.70
2023-03-11T03:34:24.307Z,6.70
2023-03-11T03:36:53.130Z,6.60
2023-03-11T03:39:22.030Z,6.60
2023-03-11T03:41:52.832Z,6.60
2023-03-11T03:44:23.728Z,6.60
2023-03-11T03:46:53.982Z,6.60
2023-03-11T03:49:22.935Z,6.50
2023-03-11T03:51:52.618Z,6.50
2023-03-11T03:54:29.795Z,6.50
2023-03-11T03:56:59.238Z,6.50
2023-03-11T03:59:28.103Z,6.50
2023-03-11T04:02:01.604Z,6.40
2023-03-11T04:04:32.316Z,6.40
2023-03-11T04:07:01.304Z,6.40
2023-03-11T04:09:30.729Z,6.00
2023-03-11T04:12:00.287Z,5.70
2023-03-11T04:14:30.082Z,5.20
2023-03-11T04:17:03.460Z,5.00
2023-03-11T04:19:33.241Z,4.90
2023-03-11T04:22:02.003Z,4.80
2023-03-11T04:24:31.303Z,4.50
2023-03-11T04:27:00.167Z,4.40
2023-03-11T04:29:29.389Z,4.20
2023-03-11T04:31:58.176Z,3.90
2023-03-11T04:34:28.383Z,3.70
2023-03-11T04:36:57.522Z,3.50
2023-03-11T04:39:31.139Z,3.30
2023-03-11T04:42:02.344Z,3.30
2023-03-11T04:44:35.807Z,3.20
2023-03-11T04:47:05.897Z,3.20
2023-03-11T04:49:36.577Z,3.00
2023-03-11T04:52:06.225Z,2.90
2023-03-11T04:54:35.066Z,2.80
2023-03-11T04:57:04.075Z,2.80
2023-03-11T04:59:32.899Z,2.80
2023-03-11T05:02:02.031Z,2.70
2023-03-11T05:04:31.499Z,2.60
2023-03-11T05:07:01.749Z,2.50
2023-03-11T05:09:31.770Z,2.40
2023-03-11T05:12:01.706Z,2.40
2023-03-11T05:14:31.651Z,2.30
2023-03-11T05:17:00.544Z,2.20
2023-03-11T05:19:34.578Z,2.20
2023-03-11T05:22:10.849Z,2.10
2023-03-11T05:24:40.255Z,2.10
2023-03-11T05:27:09.187Z,2.00
2023-03-11T05:29:39.736Z,1.90
2023-03-11T05:32:11.663Z,1.90
2023-03-11T05:34:40.951Z,3.60
2023-03-11T05:37:11.320Z,1.70
2023-03-11T05:39:40.069Z,1.70
2023-03-11T05:42:09.862Z,1.60
2023-03-11T05:44:38.959Z,1.60
2023-03-11T05:47:08.108Z,1.60
2023-03-11T05:49:37.810Z,1.50
2023-03-11T05:52:07.626Z,1.50
2023-03-11T05:54:38.784Z,1.40
2023-03-11T05:57:07.604Z,1.50
2023-03-11T05:59:37.913Z,1.40
2023-03-11T06:02:07.619Z,1.30
2023-03-11T06:04:36.521Z,1.30
2023-03-11T06:07:06.059Z,1.30
2023-03-11T06:09:40.032Z,1.20
2023-03-11T06:12:13.472Z,1.30
2023-03-11T06:14:55.844Z,1.20
2023-03-11T06:17:24.651Z,1.20
2023-03-11T06:19:54.175Z,1.20
2023-03-11T06:22:23.424Z,1.20
2023-03-11T06:24:53.944Z,1.20
2023-03-11T06:27:23.307Z,1.20
2023-03-11T06:29:55.407Z,1.20
2023-03-11T06:32:26.266Z,1.20
2023-03-11T06:34:55.320Z,1.10
2023-03-11T06:37:25.717Z,1.10
2023-03-11T06:39:57.088Z,1.10
2023-03-11T06:42:27.882Z,1.10
2023-03-11T06:44:59.633Z,1.00
2023-03-11T06:47:28.919Z,1.10
2023-03-11T06:49:57.907Z,1.10
2023-03-11T06:52:26.734Z,1.10
2023-03-11T06:54:58.575Z,1.10
2023-03-11T06:57:29.546Z,1.10
2023-03-11T07:00:00.513Z,1.10
2023-03-11T07:02:30.673Z,1.00
2023-03-11T07:04:59.590Z,1.00
2023-03-11T07:07:29.397Z,0.90
2023-03-11T07:09:59.794Z,0.90
2023-03-11T07:12:28.688Z,0.90
2023-03-11T07:14:57.993Z,0.90
2023-03-11T07:17:27.231Z,0.90
2023-03-11T07:19:56.004Z,0.80
2023-03-11T07:22:24.935Z,0.80
2023-03-11T07:24:53.771Z,0.80
2023-03-11T07:27:23.900Z,0.70
2023-03-11T07:29:52.712Z,0.80
2023-03-11T07:32:21.497Z,0.70
2023-03-11T07:34:50.386Z,0.70
2023-03-11T07:37:19.160Z,0.70
2023-03-11T07:39:47.955Z,0.70
2023-03-11T07:42:17.340Z,0.70
2023-03-11T07:44:51.189Z,0.70
2023-03-11T07:47:20.028Z,0.70
2023-03-11T07:49:48.909Z,0.70
2023-03-11T07:52:17.760Z,0.80
2023-03-11T07:54:47.327Z,0.80
2023-03-11T07:57:17.231Z,0.90
2023-03-11T07:59:47.417Z,0.90
2023-03-11T08:02:16.285Z,0.90
2023-03-11T08:04:45.028Z,0.90
2023-03-11T08:07:13.801Z,0.90
2023-03-11T08:09:42.588Z,1.00
2023-03-11T08:12:11.644Z,1.00
2023-03-11T08:14:41.140Z,1.00
2023-03-11T08:17:11.393Z,1.00
2023-03-11T08:19:40.135Z,1.00
2023-03-11T08:22:11.322Z,1.00
2023-03-11T08:24:40.158Z,1.00
2023-03-11T08:27:09.773Z,1.00
2023-03-11T08:29:38.605Z,1.00
2023-03-11T08:32:08.117Z,1.00
2023-03-11T08:34:39.563Z,1.10
2023-03-11T08:37:08.439Z,1.00
2023-03-11T08:39:37.274Z,1.10
2023-03-11T08:42:06.819Z,1.10
2023-03-11T08:44:35.656Z,1.10
2023-03-11T08:47:04.472Z,1.00
2023-03-11T08:49:33.298Z,1.00
2023-03-11T08:52:03.830Z,1.10
2023-03-11T08:54:33.705Z,1.10
2023-03-11T08:57:04.661Z,1.10
2023-03-11T08:59:33.406Z,1.10
2023-03-11T09:02:02.176Z,1.10
2023-03-11T09:04:30.901Z,1.10
2023-03-11T09:06:59.632Z,1.00
2023-03-11T09:09:29.765Z,1.00
2023-03-11T09:11:58.534Z,1.00
2023-03-11T09:14:27.289Z,1.10
2023-03-11T09:16:56.111Z,1.20
2023-03-11T09:19:24.896Z,1.30
2023-03-11T09:21:53.755Z,1.30
2023-03-11T09:24:22.475Z,1.20
2023-03-11T09:26:52.751Z,1.20
2023-03-11T09:29:21.508Z,1.20
2023-03-11T09:31:50.375Z,1.20
2023-03-11T09:34:19.135Z,1.10
2023-03-11T09:36:48.030Z,1.10
2023-03-11T09:39:16.912Z,1.20
2023-03-11T09:41:58.555Z,1.10
2023-03-11T09:44:42.517Z,1.10
2023-03-11T09:47:25.165Z,1.10
2023-03-11T09:50:11.849Z,1.20
2023-03-11T09:52:46.005Z,1.20
2023-03-11T09:55:37.362Z,1.30
2023-03-11T09:58:16.684Z,1.20
2023-03-11T10:00:47.683Z,1.30
2023-03-11T10:03:27.312Z,1.40
2023-03-11T10:06:02.279Z,1.40
2023-03-11T10:08:39.320Z,1.40
2023-03-11T10:11:28.159Z,1.50
2023-03-11T10:14:05.478Z,1.70
2023-03-11T10:16:45.243Z,1.70
2023-03-11T10:19:26.402Z,1.80
2023-03-11T10:22:03.829Z,1.80
2023-03-11T10:24:47.892Z,1.80
2023-03-11T10:27:21.714Z,1.80
2023-03-11T10:29:59.395Z,1.90
2023-03-11T10:32:38.243Z,1.70
2023-03-11T10:35:17.517Z,1.70
2023-03-11T10:37:52.716Z,1.70
2023-03-11T10:40:29.380Z,1.60
2023-03-11T10:43:01.906Z,1.70
2023-03-11T10:45:37.664Z,1.80
2023-03-11T10:48:12.598Z,1.80
2023-03-11T10:50:51.787Z,1.90
2023-03-11T10:53:21.845Z,1.80
2023-03-11T10:55:52.810Z,1.80
2023-03-11T10:58:24.261Z,1.80
2023-03-11T11:01:06.511Z,1.80
2023-03-11T11:03:37.399Z,1.60
2023-03-11T11:06:08.742Z,1.50
2023-03-11T11:08:37.535Z,1.70
2023-03-11T11:11:20.909Z,1.80
2023-03-11T11:13:58.535Z,1.90
2023-03-11T11:16:28.407Z,2.00
2023-03-11T11:19:03.940Z,1.90
2023-03-11T11:21:34.577Z,1.90
2023-03-11T11:24:16.839Z,1.90
2023-03-11T11:27:04.780Z,1.70
2023-03-11T11:29:34.882Z,1.70
2023-03-11T11:32:20.165Z,1.80
2023-03-11T11:34:59.886Z,1.90
2023-03-11T11:37:32.091Z,1.90
2023-03-11T11:40:11.262Z,1.90
2023-03-11T11:42:44.609Z,1.90
2023-03-11T11:45:17.063Z,1.90
2023-03-11T11:47:50.674Z,1.90
2023-03-11T11:50:30.086Z,1.80
2023-03-11T11:53:08.511Z,1.90
2023-03-11T11:55:45.782Z,1.80
2023-03-11T11:58:14.597Z,1.80
2023-03-11T12:00:54.602Z,1.80
2023-03-11T12:03:45.667Z,1.70
2023-03-11T12:06:23.243Z,1.50
2023-03-11T12:09:05.259Z,1.60
2023-03-11T12:11:41.983Z,1.60
2023-03-11T12:14:18.128Z,1.50
2023-03-11T12:16:53.568Z,1.60
2023-03-11T12:19:44.214Z,1.60
2023-03-11T12:22:49.389Z,1.60
2023-03-11T12:25:28.392Z,1.60
2023-03-11T12:28:04.823Z,1.60
2023-03-11T12:30:37.861Z,1.60
2023-03-11T12:33:10.397Z,1.50
2023-03-11T12:35:39.199Z,1.60
2023-03-11T12:38:18.603Z,1.60
2023-03-11T12:40:59.367Z,1.50
2023-03-11T12:44:10.906Z,1.50
2023-03-11T12:47:05.153Z,1.60
2023-03-11T12:49:35.308Z,1.50
2023-03-11T12:52:06.873Z,1.50
2023-03-11T12:54:39.484Z,1.50
2023-03-11T12:57:31.098Z,1.50
2023-03-11T13:00:23.974Z,1.40
2023-03-11T13:03:27.434Z,1.70
2023-03-11T13:06:04.271Z,2.00
2023-03-11T13:08:39.436Z,2.50
2023-03-11T13:11:51.278Z,2.60
2023-03-11T13:14:29.074Z,4.00
2023-03-11T13:17:12.257Z,2.50
2023-03-11T13:19:53.005Z,2.30
2023-03-11T13:23:06.008Z,2.20
2023-03-11T13:25:40.465Z,2.10
2023-03-11T13:28:37.231Z,2.10
2023-03-11T13:31:17.583Z,2.20
2023-03-11T13:33:54.634Z,2.20
2023-03-11T13:36:43.521Z,2.20
2023-03-11T13:39:27.619Z,2.10
2023-03-11T13:41:57.249Z,2.20
2023-03-11T13:44:36.351Z,2.30
2023-03-11T13:47:12.510Z,2.30
2023-03-11T13:49:44.697Z,2.30
2023-03-11T13:52:17.278Z,2.30
2023-03-11T13:54:51.717Z,2.30
2023-03-11T13:57:27.822Z,2.30
2023-03-11T13:59:59.600Z,2.20
2023-03-11T14:02:28.912Z,2.20
2023-03-11T14:05:03.842Z,2.20
2023-03-11T14:07:35.383Z,2.30
2023-03-11T14:10:26.838Z,2.60
2023-03-11T14:13:17.172Z,2.80
2023-03-11T14:15:53.580Z,2.80
2023-03-11T14:18:39.885Z,2.90
2023-03-11T14:21:14.785Z,3.00
2023-03-11T14:23:46.176Z,3.00
2023-03-11T14:26:18.710Z,2.80
2023-03-11T14:28:50.791Z,2.70
2023-03-11T14:31:33.785Z,2.60
2023-03-11T14:34:07.630Z,2.60
2023-03-11T14:36:44.288Z,2.60
2023-03-11T14:39:30.890Z,2.40
2023-03-11T14:42:06.327Z,2.30
2023-03-11T14:44:38.899Z,2.30
2023-03-11T14:47:14.690Z,2.50
2023-03-11T14:49:43.980Z,2.60
2023-03-11T14:52:19.717Z,2.50
2023-03-11T14:54:50.595Z,2.50
2023-03-11T14:57:24.195Z,2.40
2023-03-11T14:59:54.316Z,2.50
2023-03-11T15:02:37.801Z,2.50
2023-03-11T15:05:13.056Z,2.60
2023-03-11T15:07:41.963Z,2.80
2023-03-11T15:10:12.039Z,2.80
2023-03-11T15:12:43.309Z,2.70
2023-03-11T15:15:26.792Z,2.90
2023-03-11T15:17:58.987Z,2.80
2023-03-11T15:20:31.110Z,2.70
2023-03-11T15:23:02.130Z,2.50
2023-03-11T15:25:34.499Z,2.50
2023-03-11T15:28:21.904Z,2.40
2023-03-11T15:30:50.910Z,2.40
2023-03-11T15:33:32.693Z,2.40
2023-03-11T15:36:01.532Z,2.30
2023-03-11T15:38:30.355Z,2.30
2023-03-11T15:41:01.356Z,2.20
2023-03-11T15:43:31.945Z,2.30
2023-03-11T15:46:03.339Z,2.20
2023-03-11T15:48:33.590Z,2.20
2023-03-11T15:51:02.618Z,2.20
2023-03-11T15:53:32.461Z,2.10
2023-03-11T15:56:08.348Z,2.10
2023-03-11T15:58:38.934Z,2.00
2023-03-11T16:01:08.342Z,2.00
2023-03-11T16:03:39.341Z,2.10
2023-03-11T16:06:08.389Z,2.00
2023-03-11T16:08:37.385Z,2.00
2023-03-11T16:11:06.854Z,1.90
2023-03-11T16:13:35.562Z,1.90
2023-03-11T16:16:04.849Z,1.90
2023-03-11T16:18:34.048Z,1.90
2023-03-11T16:21:10.017Z,1.90
2023-03-11T16:23:51.037Z,1.90
2023-03-11T16:26:22.123Z,1.90
2023-03-11T16:28:50.904Z,1.90
2023-03-11T16:31:19.764Z,1.80
2023-03-11T16:33:48.754Z,1.80
2023-03-11T16:36:19.106Z,1.70
2023-03-11T16:38:49.630Z,1.70
2023-03-11T16:41:18.915Z,1.50
2023-03-11T16:43:47.888Z,1.50
2023-03-11T16:46:16.773Z,1.30
2023-03-11T16:48:45.648Z,1.30
2023-03-11T16:51:14.374Z,1.30
2023-03-11T16:53:44.566Z,1.20
2023-03-11T16:56:13.428Z,1.20
2023-03-11T16:58:42.174Z,1.10
2023-03-11T17:01:13.582Z,1.10
2023-03-11T17:03:43.505Z,1.10
2023-03-11T17:06:12.415Z,1.10
2023-03-11T17:08:41.512Z,1.00
2023-03-11T17:11:18.083Z,1.00
2023-03-11T17:13:47.121Z,0.90
2023-03-11T17:16:16.178Z,0.90
2023-03-11T17:18:45.051Z,0.90
2023-03-11T17:21:16.035Z,0.90
2023-03-11T17:23:45.156Z,0.90
2023-03-11T17:26:17.388Z,0.90
2023-03-11T17:28:46.151Z,0.90
2023-03-11T17:31:15.717Z,0.90
2023-03-11T17:33:45.161Z,0.80
2023-03-11T17:36:15.957Z,0.80
2023-03-11T17:38:45.450Z,0.80
2023-03-11T17:41:17.161Z,0.80
2023-03-11T17:43:46.689Z,0.70
2023-03-11T17:46:17.200Z,0.70
2023-03-11T17:48:47.244Z,0.70
2023-03-11T17:51:18.175Z,0.70
2023-03-11T17:53:48.308Z,0.70
2023-03-11T17:56:20.690Z,0.70
2023-03-11T17:58:50.388Z,0.70
2023-03-11T18:01:22.326Z,0.70
2023-03-11T18:03:51.743Z,0.70
2023-03-11T18:06:21.706Z,0.70
2023-03-11T18:08:51.439Z,0.70
2023-03-11T18:11:23.768Z,0.70
2023-03-11T18:13:53.151Z,0.70
2023-03-11T18:16:24.004Z,0.60
2023-03-11T18:18:54.985Z,0.60
2023-03-11T18:21:25.697Z,0.70
2023-03-11T18:23:55.358Z,0.70
2023-03-11T18:26:27.682Z,0.70
2023-03-11T18:28:57.590Z,0.70
2023-03-11T18:31:27.936Z,0.70
2023-03-11T18:33:58.639Z,0.70
2023-03-11T18:36:29.755Z,0.70
2023-03-11T18:39:00.804Z,0.70
2023-03-11T18:41:33.648Z,0.70
2023-03-11T18:44:03.376Z,0.70
2023-03-11T18:46:33.068Z,0.70
2023-03-11T18:49:03.844Z,0.70
2023-03-11T18:51:33.778Z,0.60
2023-03-11T18:54:07.971Z,0.60
2023-03-11T18:56:38.692Z,0.50
2023-03-11T18:59:08.660Z,0.50
2023-03-11T19:01:37.588Z,0.50
2023-03-11T19:04:06.685Z,0.50
2023-03-11T19:06:35.565Z,0.40
2023-03-11T19:09:07.023Z,0.40
2023-03-11T19:11:38.081Z,0.40
2023-03-11T19:14:06.959Z,0.40
2023-03-11T19:16:36.605Z,0.40
2023-03-11T19:19:07.354Z,0.40
2023-03-11T19:21:36.250Z,0.40
2023-03-11T19:24:05.243Z,0.40
2023-03-11T19:26:44.887Z,0.30
2023-03-11T19:29:16.449Z,0.30
2023-03-11T19:31:45.469Z,0.30
2023-03-11T19:34:14.351Z,0.30
2023-03-11T19:36:43.528Z,0.30
2023-03-11T19:39:12.360Z,0.30
2023-03-11T19:41:41.554Z,0.30
2023-03-11T19:44:10.373Z,0.30
2023-03-11T19:46:40.888Z,0.30
2023-03-11T19:49:09.838Z,0.30
2023-03-11T19:51:49.595Z,0.30
2023-03-11T19:54:19.454Z,0.20
2023-03-11T19:56:48.567Z,0.30
2023-03-11T19:59:17.610Z,0.20
2023-03-11T20:01:48.222Z,0.20
2023-03-11T20:04:17.169Z,0.20
2023-03-11T20:06:46.433Z,0.20
2023-03-11T20:09:16.245Z,0.20
2023-03-11T20:11:46.731Z,0.20
2023-03-11T20:14:16.053Z,0.20
2023-03-11T20:16:44.956Z,0.20
2023-03-11T20:19:15.597Z,0.20
2023-03-11T20:21:45.939Z,0.20
2023-03-11T20:24:15.218Z,0.20
2023-03-11T20:26:44.293Z,0.10
2023-03-11T20:29:13.116Z,0.10
2023-03-11T20:31:42.098Z,0.10
2023-03-11T20:34:11.751Z,0.10
2023-03-11T20:36:42.385Z,0.10
2023-03-11T20:39:11.402Z,0.10
2023-03-11T20:41:41.814Z,0.10
2023-03-11T20:44:13.788Z,0.10
2023-03-11T20:46:43.206Z,0.10
2023-03-11T20:49:12.528Z,0.10
2023-03-11T20:51:43.992Z,0.00
2023-03-11T20:54:12.985Z,0.10
2023-03-11T20:56:42.335Z,0.00
2023-03-11T20:59:13.597Z,0.00
2023-03-11T21:01:42.584Z,0.10
2023-03-11T21:04:12.068Z,0.10
2023-03-11T21:06:43.317Z,0.10
2023-03-11T21:09:14.326Z,0.10
2023-03-11T21:11:43.588Z,0.00
2023-03-11T21:14:15.575Z,0.10
2023-03-11T21:16:45.323Z,0.00
2023-03-11T21:19:15.200Z,0.00
2023-03-11T21:21:45.520Z,0.10
2023-03-11T21:24:14.530Z,0.00
2023-03-11T21:26:43.371Z,0.00
2023-03-11T21:29:12.351Z,0.00
2023-03-11T21:31:41.316Z,0.00
2023-03-11T21:34:12.078Z,0.00
2023-03-11T21:36:41.249Z,0.00
2023-03-11T21:39:11.537Z,0.00
2023-03-11T21:41:40.828Z,0.00
2023-03-11T21:44:09.646Z,0.00
2023-03-11T21:46:38.857Z,0.00
2023-03-11T21:49:07.749Z,0.00
2023-03-11T21:51:37.105Z,0.00
2023-03-11T21:54:06.457Z,0.00
2023-03-11T21:56:36.951Z,0.10
2023-03-11T21:59:05.904Z,0.10
2023-03-11T22:01:35.348Z,0.00
2023-03-11T22:04:04.502Z,0.00
2023-03-11T22:06:33.925Z,0.00
2023-03-11T22:09:03.713Z,0.00
2023-03-11T22:11:32.829Z,0.00
2023-03-11T22:14:03.588Z,0.00
2023-03-11T22:16:32.550Z,-0.10
2023-03-11T22:19:01.463Z,-0.10
2023-03-11T22:21:30.513Z,-0.20
2023-03-11T22:23:59.446Z,-0.10
2023-03-11T22:26:28.278Z,-0.10
2023-03-11T22:28:57.063Z,-0.10
2023-03-11T22:31:27.705Z,-0.10
2023-03-11T22:33:56.617Z,-0.10
2023-03-11T22:36:25.614Z,-0.10
2023-03-11T22:38:54.498Z,-0.10
2023-03-11T22:41:23.417Z,-0.10
2023-03-11T22:43:52.248Z,-0.10
2023-03-11T22:46:21.471Z,-0.10
2023-03-11T22:48:51.990Z,-0.20
2023-03-11T22:51:21.136Z,-0.20
2023-03-11T22:53:50.101Z,-0.20
2023-03-11T22:56:20.074Z,-0.20
2023-03-11T22:58:49.064Z,-0.20
2023-03-11T23:01:18.204Z,-0.20
2023-03-11T23:03:47.395Z,-0.30
2023-03-11T23:06:20.549Z,-0.20
2023-03-11T23:08:49.646Z,-0.20
2023-03-11T23:11:21.197Z,-0.30
2023-03-11T23:13:51.006Z,-0.30
2023-03-11T23:16:22.287Z,-0.40
2023-03-11T23:18:53.709Z,-0.40
2023-03-11T23:21:26.262Z,-0.40
2023-03-11T23:23:55.731Z,-0.40
2023-03-11T23:26:25.154Z,-0.40
2023-03-11T23:28:54.403Z,-0.40
2023-03-11T23:31:24.804Z,-0.40
2023-03-11T23:33:53.863Z,-0.40
2023-03-11T23:36:26.866Z,-0.40
2023-03-11T23:38:55.840Z,-0.40
2023-03-11T23:41:24.917Z,-0.40
2023-03-11T23:43:53.907Z,-0.40
2023-03-11T23:46:22.984Z,-0.40
2023-03-11T23:48:51.889Z,-0.40
2023-03-11T23:51:20.747Z,-0.40
2023-03-11T23:53:51.375Z,-0.40
2023-03-11T23:56:20.984Z,-0.40
2023-03-11T23:58:49.855Z,-0.40
